Orbital elements of SL-14 DEB
| Launched | 25 October 1978 |
| Flight ended | – |
| Launch site | Plesetsk Missile and Space Complex, Russia |
| Owner | Commonwealth of Independent States (former USSR) |
| NORAD ID | 19178 |
| Date fetched |
Epoch osculation |
Inc. [°] |
Ecc. | RA asc node [hr] |
Arg Peri. [°] |
Mean anom [°] |
Mean motion [rev/day] |
Abs. mag |
| Date fetched |
Epoch osculation |
Inc. [°] |
Ecc. | RA asc node [hr] |
Arg Peri. [°] |
Mean anom [°] |
Mean motion [rev/day] |
Abs. mag |
| 2026 May 06 17:57 | 2026 May 05 07:54:11 | 82.1149 | 0.00246 | 5.7213 | 88.6669 | 81.4081 | 12.17905 | – |
| 2026 May 05 17:57 | 2026 May 05 07:54:11 | 82.1149 | 0.00246 | 5.7213 | 88.6669 | 81.4081 | 12.17905 | – |
| 2026 May 04 17:57 | 2026 Apr 30 09:36:44 | 82.1210 | 0.00235 | 5.9261 | 97.9652 | 81.4081 | 12.17905 | – |
| 2026 May 03 17:57 | 2026 Apr 30 09:36:44 | 82.1210 | 0.00235 | 5.9261 | 97.9652 | 81.4081 | 12.17905 | – |
| 2026 May 02 17:57 | 2026 Apr 30 09:36:44 | 82.1210 | 0.00235 | 5.9261 | 97.9652 | 81.4081 | 12.17905 | – |
| 2026 May 01 17:56 | 2026 Apr 30 09:36:44 | 82.1210 | 0.00235 | 5.9261 | 97.9652 | 81.4081 | 12.17905 | – |
| 2026 Apr 30 17:56 | 2026 Apr 30 09:36:44 | 82.1210 | 0.00235 | 5.9261 | 97.9652 | 81.4081 | 12.17905 | – |
| 2026 Apr 29 17:57 | 2026 Apr 24 09:36:45 | 82.1157 | 0.00219 | 6.1754 | 112.2935 | 81.4081 | 12.17905 | – |
| 2026 Apr 28 17:56 | 2026 Apr 24 09:36:45 | 82.1157 | 0.00219 | 6.1754 | 112.2935 | 81.4081 | 12.17905 | – |
| 2026 Apr 27 17:58 | 2026 Apr 24 09:36:45 | 82.1157 | 0.00219 | 6.1754 | 112.2935 | 81.4081 | 12.17905 | – |
| 2026 Apr 26 17:58 | 2026 Apr 24 09:36:45 | 82.1157 | 0.00219 | 6.1754 | 112.2935 | 81.4081 | 12.17905 | – |
| 2026 Apr 25 17:58 | 2026 Apr 24 09:36:45 | 82.1157 | 0.00219 | 6.1754 | 112.2935 | 81.4081 | 12.17905 | – |
| 2026 Apr 24 17:59 | 2026 Apr 24 09:36:45 | 82.1157 | 0.00219 | 6.1754 | 112.2935 | 81.4081 | 12.17905 | – |
| 2026 Apr 23 17:57 | 2026 Apr 18 22:47:26 | 82.1140 | 0.00198 | 6.4019 | 125.1250 | 81.4081 | 12.17905 | – |
| 2026 Apr 22 17:57 | 2026 Apr 18 22:47:26 | 82.1140 | 0.00198 | 6.4019 | 125.1250 | 81.4081 | 12.17905 | – |
| 2026 Apr 21 17:57 | 2026 Apr 18 22:47:26 | 82.1140 | 0.00198 | 6.4019 | 125.1250 | 81.4081 | 12.17905 | – |
| 2026 Apr 20 17:57 | 2026 Apr 18 22:47:26 | 82.1140 | 0.00198 | 6.4019 | 125.1250 | 81.4081 | 12.17905 | – |
| 2026 Apr 19 17:58 | 2026 Apr 18 22:47:26 | 82.1140 | 0.00198 | 6.4019 | 125.1250 | 81.4081 | 12.17905 | – |
| 2026 Apr 18 17:56 | 2026 Apr 13 06:40:48 | 82.1131 | 0.00180 | 6.6376 | 139.1865 | 81.4081 | 12.17905 | – |
| 2026 Apr 16 17:57 | 2026 Apr 13 06:40:48 | 82.1131 | 0.00180 | 6.6376 | 139.1865 | 81.4081 | 12.17905 | – |
| 2026 Apr 14 17:57 | 2026 Apr 13 06:40:48 | 82.1131 | 0.00180 | 6.6376 | 139.1865 | 81.4081 | 12.17905 | – |
| 2026 Apr 13 17:57 | 2026 Apr 13 06:40:48 | 82.1131 | 0.00180 | 6.6376 | 139.1865 | 81.4081 | 12.17905 | – |
| 2026 Apr 12 17:57 | 2026 Apr 08 10:57:31 | 82.1151 | 0.00176 | 6.8379 | 147.6499 | 81.4081 | 12.17905 | – |
| 2026 Apr 11 17:57 | 2026 Apr 08 10:57:31 | 82.1151 | 0.00176 | 6.8379 | 147.6499 | 81.4081 | 12.17905 | – |
| 2026 Apr 10 17:58 | 2026 Apr 08 10:57:31 | 82.1151 | 0.00176 | 6.8379 | 147.6499 | 81.4081 | 12.17905 | – |
| 2026 Apr 09 18:01 | 2026 Apr 08 10:57:31 | 82.1151 | 0.00176 | 6.8379 | 147.6499 | 81.4081 | 12.17905 | – |